createdAt,value
2023-01-15T00:00:06.031Z,100877.09
2023-01-15T00:02:33.131Z,100877.73
2023-01-15T00:05:03.233Z,100874.73
2023-01-15T00:07:31.504Z,100873.27
2023-01-15T00:09:58.948Z,100874.61
2023-01-15T00:12:26.086Z,100872.00
2023-01-15T00:14:53.203Z,100870.77
2023-01-15T00:17:20.283Z,100871.65
2023-01-15T00:19:47.246Z,100870.40
2023-01-15T00:22:14.209Z,100870.65
2023-01-15T00:25:10.509Z,100870.27
2023-01-15T00:27:40.232Z,100870.45
2023-01-15T00:30:13.119Z,100866.94
2023-01-15T00:32:44.015Z,100866.70
2023-01-15T00:35:15.866Z,100865.58
2023-01-15T00:37:42.749Z,100864.94
2023-01-15T00:40:19.114Z,100861.94
2023-01-15T00:42:54.048Z,100863.42
2023-01-15T00:45:22.009Z,100863.30
2023-01-15T00:47:50.853Z,100863.23
2023-01-15T00:50:17.932Z,100860.83
2023-01-15T00:52:44.931Z,100862.42
2023-01-15T00:55:11.935Z,100860.64
2023-01-15T00:57:38.963Z,100858.59
2023-01-15T01:00:06.837Z,100851.64
2023-01-15T01:02:34.112Z,100854.19
2023-01-15T01:05:01.380Z,100851.25
2023-01-15T01:07:35.262Z,100853.91
2023-01-15T01:10:03.871Z,100850.20
2023-01-15T01:12:31.002Z,100853.34
2023-01-15T01:15:03.474Z,100851.41
2023-01-15T01:17:30.526Z,100853.92
2023-01-15T01:19:57.509Z,100853.25
2023-01-15T01:22:24.620Z,100854.46
2023-01-15T01:24:51.651Z,100854.79
2023-01-15T01:27:19.628Z,100852.48
2023-01-15T01:29:46.590Z,100852.49
2023-01-15T01:32:18.677Z,100848.16
2023-01-15T01:34:45.604Z,100845.33
2023-01-15T01:37:17.632Z,100842.50
2023-01-15T01:39:45.159Z,100842.07
2023-01-15T01:42:13.531Z,100842.40
2023-01-15T01:44:45.860Z,100841.84
2023-01-15T01:47:23.145Z,100840.55
2023-01-15T01:49:59.201Z,100842.23
2023-01-15T01:52:29.842Z,100839.14
2023-01-15T01:54:56.793Z,100837.12
2023-01-15T01:57:23.874Z,100834.89
2023-01-15T01:59:50.973Z,100832.77
2023-01-15T02:02:19.028Z,100830.04
2023-01-15T02:04:46.412Z,100833.26
2023-01-15T02:07:13.651Z,100835.22
2023-01-15T02:09:40.701Z,100829.63
2023-01-15T02:12:25.872Z,100830.25
2023-01-15T02:15:06.584Z,100827.27
2023-01-15T02:18:37.836Z,100827.23
2023-01-15T02:21:23.572Z,100832.23
2023-01-15T02:24:15.708Z,100830.58
2023-01-15T02:27:02.724Z,100833.98
2023-01-15T02:29:50.867Z,100829.98
2023-01-15T02:32:37.525Z,100821.08
2023-01-15T02:35:12.361Z,100819.23
2023-01-15T02:37:41.061Z,100817.35
2023-01-15T02:40:09.875Z,100816.48
2023-01-15T02:42:37.032Z,100819.23
2023-01-15T02:45:05.832Z,100821.23
2023-01-15T02:47:35.610Z,100817.12
2023-01-15T02:50:11.367Z,100816.48
2023-01-15T02:52:43.458Z,100816.35
2023-01-15T02:55:29.496Z,100815.98
2023-01-15T02:57:58.530Z,100818.44
2023-01-15T03:00:26.253Z,100824.65
2023-01-15T03:02:59.877Z,100827.69
2023-01-15T03:05:29.381Z,100831.67
2023-01-15T03:07:58.203Z,100827.39
2023-01-15T03:10:40.242Z,100813.40
2023-01-15T03:13:08.628Z,100820.73
2023-01-15T03:16:09.900Z,100830.59
2023-01-15T03:18:44.266Z,100829.88
2023-01-15T03:21:13.409Z,100826.08
2023-01-15T03:23:42.073Z,100824.41
2023-01-15T03:26:09.026Z,100821.77
2023-01-15T03:28:39.494Z,100816.17
2023-01-15T03:31:06.766Z,100821.93
2023-01-15T03:33:34.919Z,100821.44
2023-01-15T03:36:02.722Z,100818.14
2023-01-15T03:38:47.372Z,100822.38
2023-01-15T03:41:31.769Z,100828.24
2023-01-15T03:44:07.949Z,100827.06
2023-01-15T03:47:02.108Z,100828.85
2023-01-15T03:49:50.859Z,100826.38
2023-01-15T03:52:50.172Z,100821.81
2023-01-15T03:55:17.904Z,100826.84
2023-01-15T03:58:00.665Z,100828.20
2023-01-15T04:00:40.184Z,100826.38
2023-01-15T04:03:09.043Z,100826.22
2023-01-15T04:05:36.093Z,100833.80
2023-01-15T04:08:03.989Z,100832.48
2023-01-15T04:10:31.579Z,100834.36
2023-01-15T04:12:59.725Z,100836.37
2023-01-15T04:15:26.724Z,100832.28
2023-01-15T04:17:59.196Z,100827.02
2023-01-15T04:20:28.667Z,100830.25
2023-01-15T04:23:01.337Z,100831.42
2023-01-15T04:25:28.248Z,100825.69
2023-01-15T04:27:55.435Z,100827.92
2023-01-15T04:30:27.615Z,100821.12
2023-01-15T04:32:54.594Z,100823.75
2023-01-15T04:35:21.612Z,100833.52
2023-01-15T04:37:48.679Z,100834.85
2023-01-15T04:40:34.327Z,100826.08
2023-01-15T04:43:30.371Z,100833.20
2023-01-15T04:45:57.410Z,100833.61
2023-01-15T04:48:24.359Z,100842.70
2023-01-15T04:50:51.478Z,100840.91
2023-01-15T04:53:18.495Z,100841.67
2023-01-15T04:55:45.530Z,100844.36
2023-01-15T04:58:12.542Z,100848.63
2023-01-15T05:00:40.501Z,100848.30
2023-01-15T05:03:07.655Z,100843.08
2023-01-15T05:05:34.598Z,100839.39
2023-01-15T05:08:01.584Z,100848.55
2023-01-15T05:10:28.658Z,100849.04
2023-01-15T05:12:55.660Z,100842.73
2023-01-15T05:15:22.603Z,100853.73
2023-01-15T05:17:49.648Z,100858.30
2023-01-15T05:20:16.736Z,100840.33
2023-01-15T05:22:43.707Z,100840.27
2023-01-15T05:25:16.115Z,100848.27
2023-01-15T05:27:43.071Z,100842.91
2023-01-15T05:30:10.821Z,100837.50
2023-01-15T05:32:43.019Z,100837.23
2023-01-15T05:35:10.184Z,100844.38
2023-01-15T05:37:37.154Z,100838.45
2023-01-15T05:40:10.235Z,100842.67
2023-01-15T05:42:37.198Z,100841.96
2023-01-15T05:45:04.445Z,100838.02
2023-01-15T05:47:41.667Z,100838.02
2023-01-15T05:50:09.642Z,100830.95
2023-01-15T05:52:36.628Z,100838.86
2023-01-15T05:55:08.785Z,100833.77
2023-01-15T05:57:36.166Z,100836.61
2023-01-15T06:00:04.735Z,100838.29
2023-01-15T06:02:39.766Z,100837.72
2023-01-15T06:05:12.538Z,100841.71
2023-01-15T06:07:39.515Z,100843.55
2023-01-15T06:10:07.404Z,100844.57
2023-01-15T06:12:34.383Z,100842.31
2023-01-15T06:15:01.370Z,100843.94
2023-01-15T06:17:28.364Z,100853.52
2023-01-15T06:20:00.403Z,100850.40
2023-01-15T06:22:32.494Z,100855.30
2023-01-15T06:24:59.425Z,100856.91
2023-01-15T06:27:26.400Z,100854.38
2023-01-15T06:29:59.240Z,100850.37
2023-01-15T06:32:26.375Z,100848.63
2023-01-15T06:34:53.420Z,100849.55
2023-01-15T06:37:20.486Z,100851.23
2023-01-15T06:39:47.518Z,100855.23
2023-01-15T06:42:38.342Z,100853.38
2023-01-15T06:45:24.553Z,100854.73
2023-01-15T06:47:51.580Z,100857.97
2023-01-15T06:50:18.601Z,100851.92
2023-01-15T06:52:45.548Z,100850.17
2023-01-15T06:55:12.586Z,100846.25
2023-01-15T06:57:40.112Z,100843.43
2023-01-15T07:00:08.829Z,100838.23
2023-01-15T07:02:36.617Z,100838.52
2023-01-15T07:05:04.021Z,100838.40
2023-01-15T07:07:31.027Z,100836.89
2023-01-15T07:09:58.204Z,100835.85
2023-01-15T07:12:25.184Z,100834.08
2023-01-15T07:14:52.264Z,100840.54
2023-01-15T07:17:19.449Z,100843.60
2023-01-15T07:19:46.527Z,100843.64
2023-01-15T07:22:13.535Z,100840.86
2023-01-15T07:24:40.619Z,100840.45
2023-01-15T07:27:07.581Z,100835.15
2023-01-15T07:29:34.736Z,100835.52
2023-01-15T07:32:01.840Z,100836.16
2023-01-15T07:34:28.769Z,100834.02
2023-01-15T07:36:55.738Z,100835.80
2023-01-15T07:39:22.788Z,100829.61
2023-01-15T07:42:08.572Z,100827.98
2023-01-15T07:44:59.493Z,100828.07
2023-01-15T07:47:45.819Z,100827.23
2023-01-15T07:50:15.185Z,100828.05
2023-01-15T07:52:42.130Z,100825.20
2023-01-15T07:55:10.298Z,100829.55
2023-01-15T07:57:37.436Z,100826.86
2023-01-15T08:00:06.260Z,100827.74
2023-01-15T08:02:39.579Z,100827.98
2023-01-15T08:05:07.313Z,100823.99
2023-01-15T08:07:41.042Z,100826.79
2023-01-15T08:10:12.427Z,100826.14
2023-01-15T08:12:58.100Z,100823.98
2023-01-15T08:15:25.923Z,100822.60
2023-01-15T08:17:53.237Z,100821.63
2023-01-15T08:20:27.156Z,100820.84
2023-01-15T08:22:54.204Z,100817.80
2023-01-15T08:25:22.997Z,100818.59
2023-01-15T08:27:50.089Z,100818.16
2023-01-15T08:30:24.166Z,100817.84
2023-01-15T08:32:51.251Z,100815.11
2023-01-15T08:35:18.203Z,100815.55
2023-01-15T08:37:45.189Z,100809.89
2023-01-15T08:40:12.483Z,100807.70
2023-01-15T08:42:39.680Z,100808.33
2023-01-15T08:45:07.612Z,100804.52
2023-01-15T08:47:34.628Z,100806.58
2023-01-15T08:50:01.596Z,100797.02
2023-01-15T08:52:28.581Z,100790.71
2023-01-15T08:54:55.580Z,100790.27
2023-01-15T08:57:22.552Z,100789.30
2023-01-15T08:59:49.500Z,100786.94
2023-01-15T09:02:21.605Z,100783.92
2023-01-15T09:04:48.860Z,100780.25
2023-01-15T09:07:16.947Z,100774.66
2023-01-15T09:09:44.026Z,100772.63
2023-01-15T09:12:11.072Z,100773.10
2023-01-15T09:15:00.251Z,100775.80
2023-01-15T09:17:30.318Z,100772.48
2023-01-15T09:19:57.275Z,100769.02
2023-01-15T09:22:25.478Z,100763.73
2023-01-15T09:24:52.545Z,100757.53
2023-01-15T09:27:19.498Z,100756.08
2023-01-15T09:29:46.496Z,100753.14
2023-01-15T09:32:13.540Z,100754.38
2023-01-15T09:34:40.513Z,100755.04
2023-01-15T09:37:07.652Z,100748.56
2023-01-15T09:39:39.814Z,100744.73
2023-01-15T09:42:16.160Z,100747.65
2023-01-15T09:44:55.596Z,100751.35
2023-01-15T09:47:35.828Z,100751.36
2023-01-15T09:50:25.370Z,100751.33
2023-01-15T09:52:58.347Z,100751.78
2023-01-15T09:55:27.733Z,100747.44
2023-01-15T09:57:55.936Z,100746.59
2023-01-15T10:00:24.638Z,100748.24
2023-01-15T10:03:14.234Z,100743.69
2023-01-15T10:05:56.800Z,100738.77
2023-01-15T10:08:47.697Z,100738.36
2023-01-15T10:11:22.326Z,100737.22
2023-01-15T10:14:10.554Z,100740.30
2023-01-15T10:16:37.610Z,100741.93
2023-01-15T10:19:04.681Z,100738.55
2023-01-15T10:21:34.804Z,100734.64
2023-01-15T10:24:06.005Z,100733.45
2023-01-15T10:26:40.906Z,100731.34
2023-01-15T10:29:13.989Z,100730.05
2023-01-15T10:31:43.857Z,100731.56
2023-01-15T10:34:16.938Z,100730.21
2023-01-15T10:37:11.830Z,100726.96
2023-01-15T10:40:14.865Z,100722.48
2023-01-15T10:42:45.267Z,100720.77
2023-01-15T10:45:12.208Z,100720.88
2023-01-15T10:47:39.283Z,100725.35
2023-01-15T10:50:32.630Z,100729.52
2023-01-15T10:53:22.702Z,100727.20
2023-01-15T10:56:09.228Z,100722.38
2023-01-15T10:58:43.191Z,100720.89
2023-01-15T11:01:13.669Z,100720.96
2023-01-15T11:03:42.259Z,100723.02
2023-01-15T11:06:15.197Z,100716.27
2023-01-15T11:11:59.952Z,100713.18
2023-01-15T11:15:00.223Z,100707.05
2023-01-15T11:17:48.968Z,100704.88
2023-01-15T11:20:29.753Z,100704.30
2023-01-15T11:23:23.563Z,100702.33
2023-01-15T11:25:54.654Z,100700.89
2023-01-15T11:28:32.257Z,100697.66
2023-01-15T11:30:59.777Z,100696.48
2023-01-15T11:33:28.202Z,100696.71
2023-01-15T11:35:58.701Z,100698.29
2023-01-15T11:38:29.925Z,100694.33
2023-01-15T11:41:01.714Z,100694.64
2023-01-15T11:43:48.575Z,100689.40
2023-01-15T11:46:44.903Z,100693.30
2023-01-15T11:49:32.750Z,100692.91
2023-01-15T11:51:59.825Z,100695.79
2023-01-15T11:54:27.206Z,100694.95
2023-01-15T11:56:54.215Z,100693.51
2023-01-15T11:59:21.347Z,100689.85
2023-01-15T12:01:58.218Z,100687.16
2023-01-15T12:04:30.722Z,100687.13
2023-01-15T12:06:57.760Z,100686.32
2023-01-15T12:09:40.072Z,100690.00
2023-01-15T12:12:25.595Z,100690.13
2023-01-15T12:15:33.769Z,100687.83
2023-01-15T12:18:23.102Z,100692.16
2023-01-15T12:21:02.631Z,100698.80
2023-01-15T12:23:45.006Z,100698.04
2023-01-15T12:26:44.742Z,100697.59
2023-01-15T12:29:27.528Z,100695.51
2023-01-15T12:31:59.675Z,100696.17
2023-01-15T12:34:31.396Z,100694.28
2023-01-15T12:37:24.473Z,100698.73
2023-01-15T12:40:27.419Z,100703.45
2023-01-15T12:43:18.163Z,100704.20
2023-01-15T12:45:57.677Z,100704.21
2023-01-15T12:48:35.605Z,100704.80
2023-01-15T12:51:04.588Z,100702.59
2023-01-15T12:53:44.111Z,100697.94
2023-01-15T12:56:40.328Z,100696.05
2023-01-15T12:59:35.223Z,100697.98
2023-01-15T13:02:10.697Z,100697.06
2023-01-15T13:04:43.875Z,100696.25
2023-01-15T13:07:21.460Z,100698.81
2023-01-15T13:09:56.408Z,100691.36
2023-01-15T13:12:23.376Z,100692.59
2023-01-15T13:14:50.890Z,100693.44
2023-01-15T13:17:20.573Z,100692.63
2023-01-15T13:20:06.400Z,100700.20
2023-01-15T13:22:38.399Z,100698.41
2023-01-15T13:25:29.844Z,100695.81
2023-01-15T13:28:28.645Z,100696.05
2023-01-15T13:31:21.960Z,100699.46
2023-01-15T13:33:54.377Z,100699.69
2023-01-15T13:36:25.080Z,100699.80
2023-01-15T13:38:54.882Z,100700.65
2023-01-15T13:41:43.457Z,100694.13
2023-01-15T17:10:19.090Z,100699.20
2023-01-15T17:12:46.419Z,100699.70
2023-01-15T17:15:16.401Z,100697.63
2023-01-15T17:17:44.584Z,100694.65
2023-01-15T17:20:12.974Z,100694.23
2023-01-15T17:22:45.115Z,100694.42
2023-01-15T17:25:31.888Z,100696.98
2023-01-15T17:27:59.706Z,100693.11
2023-01-15T17:30:33.197Z,100688.64
2023-01-15T17:33:01.059Z,100685.50
2023-01-15T17:35:32.481Z,100683.34
2023-01-15T17:37:59.517Z,100683.41
2023-01-15T17:40:27.337Z,100681.57
2023-01-15T17:42:54.634Z,100679.61
2023-01-15T17:51:49.976Z,100680.59
2023-01-15T17:54:37.045Z,100678.85
2023-01-15T17:57:23.196Z,100675.86
2023-01-15T18:00:08.770Z,100678.64
2023-01-15T18:02:58.116Z,100674.27
2023-01-15T18:05:25.139Z,100664.63
2023-01-15T18:07:51.932Z,100663.44
2023-01-15T18:10:20.702Z,100659.73
2023-01-15T18:12:48.243Z,100653.04
2023-01-15T18:15:16.477Z,100648.85
2023-01-15T18:17:43.950Z,100646.86
2023-01-15T18:20:11.501Z,100649.42
2023-01-15T18:22:38.888Z,100643.48
2023-01-15T18:25:11.711Z,100638.70
2023-01-15T18:27:42.830Z,100637.27
2023-01-15T18:30:11.525Z,100633.66
2023-01-15T18:32:43.909Z,100634.77
2023-01-15T18:35:11.471Z,100638.73
2023-01-15T18:37:38.976Z,100641.30
2023-01-15T18:40:12.027Z,100637.84
2023-01-15T18:43:14.237Z,100635.31
2023-01-15T18:45:59.719Z,100640.55
2023-01-15T18:48:27.117Z,100637.00
2023-01-15T18:50:55.309Z,100634.13
2023-01-15T18:53:22.645Z,100633.40
2023-01-15T18:55:50.199Z,100631.27
2023-01-15T18:58:17.248Z,100627.87
2023-01-15T19:00:44.151Z,100626.10
2023-01-15T19:03:11.302Z,100629.23
2023-01-15T19:05:38.094Z,100620.52
2023-01-15T19:08:04.999Z,100619.96
2023-01-15T19:10:37.997Z,100616.63
2023-01-15T19:13:05.812Z,100615.12
2023-01-15T19:15:51.813Z,100609.95
2023-01-15T19:18:50.295Z,100608.41
2023-01-15T19:21:19.909Z,100605.80
2023-01-15T19:23:47.236Z,100607.29
2023-01-15T19:26:14.677Z,100605.36
2023-01-15T19:28:41.663Z,100601.64
2023-01-15T19:31:32.562Z,100603.45
2023-01-15T19:34:31.083Z,100604.73
2023-01-15T19:36:49.210Z,100601.98
2023-01-15T19:39:17.659Z,100602.34
2023-01-15T19:42:04.637Z,100600.65
2023-01-15T19:44:51.140Z,100601.30
2023-01-15T19:47:42.281Z,100602.83
2023-01-15T19:50:20.723Z,100602.63
2023-01-15T19:52:53.252Z,100601.20
2023-01-15T19:55:22.985Z,100596.19
2023-01-15T19:57:58.366Z,100593.91
2023-01-15T20:00:25.668Z,100599.09
2023-01-15T20:02:55.848Z,100597.96
2023-01-15T20:05:23.479Z,100598.28
2023-01-15T20:07:52.432Z,100605.73
2023-01-15T20:10:20.937Z,100608.91
2023-01-15T20:13:06.792Z,100608.84
2023-01-15T20:15:38.741Z,100610.23
2023-01-15T20:18:06.106Z,100607.42
2023-01-15T20:20:38.786Z,100600.27
2023-01-15T20:23:06.111Z,100598.16
2023-01-15T20:25:33.610Z,100602.58
2023-01-15T20:28:00.797Z,100603.22
2023-01-15T20:30:28.300Z,100604.80
2023-01-15T20:32:56.592Z,100599.98
2023-01-15T20:35:25.991Z,100598.73
2023-01-15T20:37:52.738Z,100604.15
2023-01-15T20:40:22.656Z,100605.48
2023-01-15T20:43:08.784Z,100606.48
2023-01-15T20:45:36.456Z,100601.66
2023-01-15T20:48:18.389Z,100599.48
2023-01-15T20:51:01.105Z,100594.48
2023-01-15T20:53:38.691Z,100601.30
2023-01-15T20:56:12.023Z,100597.25
2023-01-15T20:58:38.945Z,100601.05
2023-01-15T21:01:08.330Z,100606.60
2023-01-15T21:03:35.263Z,100606.30
2023-01-15T21:06:04.764Z,100604.67
2023-01-15T21:08:33.070Z,100609.91
2023-01-15T21:11:00.132Z,100608.64
2023-01-15T21:13:27.022Z,100610.14
2023-01-15T21:16:12.786Z,100605.84
2023-01-15T21:18:45.921Z,100601.40
2023-01-15T21:21:21.208Z,100598.90
2023-01-15T21:23:48.229Z,100605.73
2023-01-15T21:26:18.225Z,100602.13
2023-01-15T21:28:45.773Z,100598.42
2023-01-15T21:31:13.502Z,100602.77
2023-01-15T21:33:40.451Z,100600.45
2023-01-15T21:36:08.489Z,100605.34
2023-01-15T21:38:40.575Z,100603.39
2023-01-15T21:41:14.697Z,100601.04
2023-01-15T21:44:00.938Z,100599.57
2023-01-15T21:46:28.121Z,100599.17
2023-01-15T21:48:55.625Z,100597.92
2023-01-15T21:51:23.191Z,100598.19
2023-01-15T21:53:50.155Z,100601.06
2023-01-15T21:56:16.960Z,100605.60
2023-01-15T21:58:43.892Z,100610.93
2023-01-15T22:01:12.202Z,100609.64
2023-01-15T22:03:39.612Z,100606.02
2023-01-15T22:06:09.575Z,100607.70
2023-01-15T22:08:36.925Z,100610.66
2023-01-15T22:11:05.379Z,100606.61
2023-01-15T22:13:33.012Z,100607.79
2023-01-15T22:15:59.950Z,100602.89
2023-01-15T22:18:32.689Z,100603.71
2023-01-15T22:21:05.292Z,100602.90
2023-01-15T22:23:33.802Z,100600.55
2023-01-15T22:26:00.864Z,100601.22
2023-01-15T22:28:28.101Z,100599.60
2023-01-15T22:30:55.017Z,100598.13
2023-01-15T22:33:22.700Z,100596.20
2023-01-15T22:35:57.407Z,100589.77
2023-01-15T22:38:24.280Z,100588.69
2023-01-15T22:40:58.152Z,100586.73
2023-01-15T22:43:25.002Z,100588.95
2023-01-15T22:45:51.801Z,100594.36
2023-01-15T22:48:24.161Z,100590.34
2023-01-15T22:50:51.021Z,100588.98
2023-01-15T22:53:17.795Z,100587.81
2023-01-15T22:55:45.890Z,100581.78
2023-01-15T22:58:12.656Z,100580.70
2023-01-15T23:00:39.424Z,100583.86
2023-01-15T23:03:06.286Z,100584.15
2023-01-15T23:05:39.313Z,100584.31
2023-01-15T23:08:06.534Z,100581.29
2023-01-15T23:10:35.187Z,100581.42
2023-01-15T23:13:02.060Z,100582.60
2023-01-15T23:15:34.166Z,100585.48
2023-01-15T23:18:01.323Z,100583.69
2023-01-15T23:20:28.392Z,100581.52
2023-01-15T23:22:55.428Z,100582.55
2023-01-15T23:25:22.689Z,100586.29
2023-01-15T23:27:54.546Z,100585.19
2023-01-15T23:30:27.369Z,100582.61
2023-01-15T23:32:54.493Z,100587.31
2023-01-15T23:35:21.392Z,100587.52
2023-01-15T23:37:48.710Z,100591.61
2023-01-15T23:40:15.663Z,100588.80
2023-01-15T23:43:06.255Z,100587.13
2023-01-15T23:45:53.949Z,100582.41
2023-01-15T23:48:20.901Z,100580.23
2023-01-15T23:50:48.003Z,100586.06
2023-01-15T23:53:15.016Z,100586.27
2023-01-15T23:55:47.123Z,100583.15
2023-01-15T23:58:14.003Z,100584.52
